Time;durP1;ratioP1;P1;durP2;ratioP2;P2;SDS_P1;SDS_P2;PMS_P1;PMS_P2;Temp;Humidity;BMP_temperature;BMP_pressure;BME280_temperature;BME280_humidity;BME280_pressure;Samples;Min_cycle;Max_cycle;Signal;HPM_P1;HPM_P2
2023/10/11 00:03:35;;;;;;;3.17;2.20;;;;;;;15.81;100.00;98467.44;15276384;19;20014;-46
2023/10/11 00:09:01;;;;;;;7.70;2.50;;;;;;;15.81;100.00;98467.44;15276297;19;20066;-50
2023/10/11 00:14:30;;;;;;;4.80;2.58;;;;;;;15.77;100.00;98468.84;15272576;19;20041;-50
2023/10/11 00:19:55;;;;;;;4.68;2.58;;;;;;;15.69;100.00;98467.94;15264688;19;20018;-51
2023/10/11 00:25:23;;;;;;;5.60;2.40;;;;;;;15.72;100.00;98464.81;15277328;19;20018;-50
2023/10/11 00:30:51;;;;;;;5.28;2.30;;;;;;;15.72;100.00;98461.28;15272080;19;20566;-46
2023/10/11 00:36:24;;;;;;;4.90;2.45;;;;;;;15.66;100.00;98460.16;15266577;19;20681;-46
2023/10/11 00:41:49;;;;;;;5.15;2.55;;;;;;;15.60;100.00;98452.78;15266716;19;20022;-47
2023/10/11 00:47:17;;;;;;;2.85;2.33;;;;;;;15.51;100.00;98443.09;15262533;19;20018;-47
2023/10/11 00:52:43;;;;;;;6.85;2.40;;;;;;;15.47;100.00;98448.06;15257937;19;20082;-50
2023/10/11 00:58:08;;;;;;;3.63;2.50;;;;;;;15.46;100.00;98446.38;15275929;19;20006;-46
2023/10/11 01:03:35;;;;;;;5.07;2.67;;;;;;;15.39;100.00;98435.44;15270664;19;20038;-46
2023/10/11 01:09:00;;;;;;;4.40;2.78;;;;;;;15.29;100.00;98429.50;15275494;19;20028;-47
2023/10/11 01:14:25;;;;;;;3.60;2.47;;;;;;;15.22;100.00;98423.16;15270817;19;20019;-53
2023/10/11 01:19:53;;;;;;;6.00;2.95;;;;;;;15.16;100.00;98429.34;15273002;19;20014;-47
2023/10/11 01:25:22;;;;;;;6.63;2.72;;;;;;;15.09;100.00;98430.09;15262014;19;20086;-49
2023/10/11 01:30:47;;;;;;;4.30;2.83;;;;;;;15.07;100.00;98426.75;15274126;19;20015;-51
2023/10/11 01:36:21;;;;;;;3.70;2.58;;;;;;;15.06;100.00;98425.06;15270239;19;20014;-50
2023/10/11 01:41:49;;;;;;;5.38;2.85;;;;;;;15.07;100.00;98424.03;15269313;19;20038;-50
2023/10/11 01:47:16;;;;;;;8.55;2.97;;;;;;;15.12;100.00;98411.75;15273175;19;20102;-46
2023/10/11 01:52:41;;;;;;;5.43;2.83;;;;;;;15.15;100.00;98406.78;15265220;19;20023;-47
2023/10/11 01:58:12;;;;;;;3.97;3.00;;;;;;;15.15;100.00;98408.66;15260499;19;20014;-48
2023/10/11 02:03:39;;;;;;;5.97;2.55;;;;;;;15.08;100.00;98406.72;15269679;19;20089;-48
2023/10/11 02:09:05;;;;;;;5.95;2.78;;;;;;;15.03;100.00;98398.28;15267556;19;20042;-46
2023/10/11 02:14:37;;;;;;;8.45;2.80;;;;;;;15.02;100.00;98393.91;15267521;19;20011;-48
2023/10/11 02:20:05;;;;;;;4.68;2.70;;;;;;;15.02;100.00;98393.91;15266755;19;20431;-47
2023/10/11 02:25:29;;;;;;;6.07;2.83;;;;;;;15.02;100.00;98380.34;15258462;19;20043;-50
2023/10/11 02:30:57;;;;;;;4.97;2.92;;;;;;;14.98;100.00;98387.19;15268088;19;20380;-48
2023/10/11 02:36:23;;;;;;;4.05;2.90;;;;;;;14.99;100.00;98390.72;15267456;19;20020;-48
2023/10/11 02:41:57;;;;;;;4.68;2.88;;;;;;;15.00;100.00;98390.53;15268419;19;20621;-49
2023/10/11 02:47:25;;;;;;;4.45;2.67;;;;;;;14.94;100.00;98396.72;15270076;19;20455;-48
2023/10/11 02:52:58;;;;;;;6.38;3.00;;;;;;;14.95;100.00;98387.56;15268675;19;20018;-47
2023/10/11 02:58:24;;;;;;;6.20;2.83;;;;;;;14.92;100.00;98385.22;15246884;19;20014;-46
2023/10/11 03:04:07;;;;;;;5.30;2.80;;;;;;;14.87;100.00;98387.69;15279793;19;20022;-56
2023/10/11 03:09:49;;;;;;;6.45;3.05;;;;;;;14.80;100.00;98382.19;15299599;19;20010;-53
2023/10/11 03:15:26;;;;;;;4.50;2.70;;;;;;;14.79;100.00;98384.03;15280285;19;20021;-49
2023/10/11 03:20:58;;;;;;;11.27;3.20;;;;;;;14.81;100.00;98386.56;15258055;19;20010;-49
2023/10/11 03:26:31;;;;;;;5.57;2.83;;;;;;;14.82;100.00;98371.13;15259579;19;20014;-50
2023/10/11 03:31:57;;;;;;;8.05;2.78;;;;;;;14.83;100.00;98370.09;15254119;19;20086;-49
2023/10/11 03:37:27;;;;;;;4.70;2.80;;;;;;;14.93;100.00;98376.06;15265487;19;20021;-49
2023/10/11 03:42:59;;;;;;;5.82;2.88;;;;;;;15.02;100.00;98355.91;15264186;19;20090;-49
2023/10/11 03:48:28;;;;;;;8.85;3.10;;;;;;;15.08;100.00;98351.59;15262864;19;20362;-48
2023/10/11 03:53:56;;;;;;;6.55;2.80;;;;;;;15.09;100.00;98348.72;15263367;19;20018;-48
2023/10/11 03:59:25;;;;;;;7.60;3.03;;;;;;;15.08;100.00;98336.16;15263547;19;20364;-49
2023/10/11 04:04:51;;;;;;;4.95;2.80;;;;;;;15.05;100.00;98327.59;15252297;19;20031;-52
2023/10/11 04:10:38;;;;;;;5.90;3.10;;;;;;;14.99;100.00;98333.75;15258696;19;20599;-52
2023/10/11 04:16:07;;;;;;;7.20;3.08;;;;;;;15.00;100.00;98336.28;15268093;19;20023;-52
2023/10/11 04:21:56;;;;;;;7.00;3.00;;;;;;;15.08;100.00;98336.16;15278784;19;20018;-47
2023/10/11 04:33:01;;;;;;;4.68;2.85;;;;;;;15.08;100.00;98333.47;15274309;19;20381;-49
2023/10/11 04:38:30;;;;;;;5.95;2.67;;;;;;;15.13;100.00;98324.75;15260569;19;20024;-53
2023/10/11 04:44:06;;;;;;;4.70;2.55;;;;;;;15.17;100.00;98338.75;15277971;19;20015;-48
2023/10/11 04:49:31;;;;;;;5.43;2.95;;;;;;;15.25;100.00;98330.47;15278480;19;20081;-51
2023/10/11 04:54:57;;;;;;;4.63;2.67;;;;;;;15.27;100.00;98327.59;15279350;19;20016;-46
2023/10/11 05:00:31;;;;;;;4.03;2.50;;;;;;;15.27;100.00;98328.41;15277444;19;20010;-48
2023/10/11 05:06:09;;;;;;;5.50;2.67;;;;;;;15.28;100.00;98319.25;15276899;19;20382;-52
2023/10/11 05:11:43;;;;;;;5.85;2.58;;;;;;;15.26;100.00;98321.31;15271794;19;20565;-52
2023/10/11 05:23:05;;;;;;;4.53;2.35;;;;;;;15.46;100.00;98320.66;15274023;19;20066;-50
2023/10/11 05:28:43;;;;;;;6.50;2.70;;;;;;;15.59;100.00;98314.50;15274041;19;20054;-49
2023/10/11 05:51:26;;;;;;;9.00;2.63;;;;;;;15.83;100.00;98311.34;15273191;19;20006;-47
2023/10/11 05:56:51;;;;;;;4.35;2.40;;;;;;;15.98;100.00;98316.69;15273286;19;20037;-50
2023/10/11 06:02:18;;;;;;;4.50;2.58;;;;;;;15.98;100.00;98315.88;15272112;19;20027;-50
2023/10/11 06:08:06;;;;;;;5.18;2.58;;;;;;;16.01;100.00;98331.75;15272810;19;20070;-49
2023/10/11 06:13:32;;;;;;;7.22;2.67;;;;;;;16.00;100.00;98321.91;15261422;19;20018;-47
2023/10/11 06:19:16;;;;;;;4.38;2.78;;;;;;;15.99;100.00;98320.28;15268030;19;20027;-47
2023/10/11 06:24:44;;;;;;;3.85;2.40;;;;;;;16.03;100.00;98324.25;15270317;19;20011;-48
2023/10/11 06:30:10;;;;;;;4.70;2.70;;;;;;;16.05;100.00;98327.63;15271193;19;20014;-48
2023/10/11 06:35:43;;;;;;;5.65;2.60;;;;;;;16.07;100.00;98317.38;15269725;19;20494;-48
2023/10/11 06:46:50;;;;;;;4.97;2.30;;;;;;;16.20;100.00;98342.97;15265270;19;20010;-50
2023/10/11 06:52:17;;;;;;;4.88;2.53;;;;;;;16.25;100.00;98346.78;15309782;19;20017;-48
2023/10/11 06:57:54;;;;;;;5.40;2.40;;;;;;;16.34;100.00;98336.56;15323226;19;20587;-55
2023/10/11 07:03:34;;;;;;;6.43;2.58;;;;;;;16.44;100.00;98338.91;15315148;19;20015;-51
2023/10/11 07:09:05;;;;;;;4.15;2.58;;;;;;;16.57;100.00;98343.59;15267129;19;20018;-53
2023/10/11 07:14:35;;;;;;;4.18;2.47;;;;;;;16.64;100.00;98348.00;15267634;19;20016;-51
2023/10/11 07:20:00;;;;;;;3.78;2.42;;;;;;;16.76;100.00;98341.97;15258569;19;20011;-49
2023/10/11 07:31:16;;;;;;;4.50;2.40;;;;;;;17.12;100.00;98334.59;15264419;19;20025;-54
2023/10/11 07:36:42;;;;;;;5.20;2.58;;;;;;;17.23;100.00;98340.25;15268132;19;20020;-54
2023/10/11 07:42:09;;;;;;;8.68;2.70;;;;;;;17.33;100.00;98341.78;15265178;19;20018;-50
2023/10/11 07:47:37;;;;;;;5.85;2.70;;;;;;;17.35;100.00;98336.94;15264004;19;21184;-50
2023/10/11 07:53:02;;;;;;;6.57;2.80;;;;;;;17.28;100.00;98328.78;15277268;19;20022;-54
2023/10/11 07:58:32;;;;;;;4.60;2.67;;;;;;;17.21;100.00;98336.94;15275309;19;20361;-52
2023/10/11 08:04:00;;;;;;;4.68;2.30;;;;;;;17.20;100.00;98335.25;15278193;19;20021;-51
2023/10/11 08:09:25;;;;;;;7.25;2.40;;;;;;;17.32;100.00;98337.38;15275795;19;20015;-49
2023/10/11 08:14:53;;;;;;;4.93;2.53;;;;;;;17.63;100.00;98322.28;15284016;19;20019;-50
2023/10/11 08:20:24;;;;;;;5.63;2.15;;;;;;;17.92;100.00;98317.47;15265957;19;20032;-48
2023/10/11 08:25:51;;;;;;;4.88;2.40;;;;;;;18.21;100.00;98309.88;15279593;19;20025;-53
2023/10/11 08:31:35;;;;;;;5.72;2.50;;;;;;;18.42;100.00;98306.88;15279314;19;20425;-53
2023/10/11 08:37:06;;;;;;;6.18;2.55;;;;;;;18.64;100.00;98320.22;15279057;19;20012;-48
2023/10/11 08:42:34;;;;;;;4.35;2.42;;;;;;;18.84;100.00;98324.78;15273040;19;20022;-49
2023/10/11 08:48:00;;;;;;;7.57;2.40;;;;;;;19.08;100.00;98317.72;15280383;19;20078;-48
2023/10/11 08:53:31;;;;;;;5.28;2.53;;;;;;;19.27;100.00;98313.19;15265575;19;20015;-51
2023/10/11 08:58:56;;;;;;;6.35;2.30;;;;;;;19.44;100.00;98315.41;15275024;19;20018;-52
2023/10/11 09:04:26;;;;;;;5.25;2.10;;;;;;;19.58;100.00;98316.13;15268995;19;20025;-51
2023/10/11 09:10:05;;;;;;;8.30;2.60;;;;;;;19.75;100.00;98303.59;15269030;19;20074;-49
2023/10/11 09:15:43;;;;;;;5.40;2.47;;;;;;;19.93;100.00;98316.50;15277583;19;20099;-54
2023/10/11 09:21:10;;;;;;;6.35;2.20;;;;;;;20.07;100.00;98319.94;15276182;19;20484;-54
2023/10/11 09:26:40;;;;;;;5.60;2.40;;;;;;;20.27;100.00;98306.06;15265296;19;20477;-47
2023/10/11 09:32:05;;;;;;;4.35;1.95;;;;;;;20.44;100.00;98308.19;15275525;19;20024;-53
2023/10/11 09:37:33;;;;;;;3.53;2.00;;;;;;;20.67;100.00;98307.50;15275066;19;20086;-47
2023/10/11 09:43:05;;;;;;;6.95;2.17;;;;;;;20.86;100.00;98305.59;15272785;19;20014;-51
2023/10/11 09:48:36;;;;;;;5.40;2.17;;;;;;;20.98;100.00;98302.88;15280730;19;20097;-50
2023/10/11 09:54:07;;;;;;;5.38;2.00;;;;;;;21.14;100.00;98300.56;15273476;19;20013;-51
2023/10/11 09:59:43;;;;;;;6.13;2.42;;;;;;;21.30;100.00;98280.72;15256837;19;20022;-51
2023/10/11 10:05:07;;;;;;;5.35;2.33;;;;;;;21.43;100.00;98279.69;15275068;19;20014;-53
2023/10/11 10:10:56;;;;;;;5.68;2.25;;;;;;;21.58;100.00;98286.63;15271853;19;20036;-51
2023/10/11 10:16:23;;;;;;;6.00;2.40;;;;;;;21.66;100.00;98278.91;15273255;19;20011;-53
2023/10/11 10:22:14;;;;;;;6.93;2.30;;;;;;;21.78;100.00;98267.94;15272727;19;20480;-53
2023/10/11 10:27:52;;;;;;;8.55;2.25;;;;;;;21.91;100.00;98263.28;15271048;19;20014;-53
2023/10/11 10:33:23;;;;;;;4.18;1.83;;;;;;;22.02;100.00;98248.75;15255930;19;20365;-54
2023/10/11 10:39:36;;;;;;;7.10;2.25;;;;;;;22.14;100.00;98238.59;15263308;19;20383;-54
2023/10/11 10:45:01;;;;;;;4.22;1.73;;;;;;;22.31;100.00;98224.09;15269053;19;20086;-54
2023/10/11 10:50:28;;;;;;;4.97;1.85;;;;;;;22.42;100.00;98228.75;15269693;19;20015;-52
2023/10/11 10:55:58;;;;;;;6.80;2.10;;;;;;;22.60;100.00;98216.75;15271180;19;20013;-52
2023/10/11 11:01:22;;;;;;;4.75;2.05;;;;;;;22.75;100.00;98209.88;15258740;19;20020;-50
2023/10/11 11:06:52;;;;;;;5.55;2.00;;;;;;;22.88;100.00;98223.31;15271759;19;20021;-53
2023/10/11 11:12:27;;;;;;;3.55;1.90;;;;;;;22.98;100.00;98206.19;15265570;19;20010;-54
2023/10/11 11:17:54;;;;;;;4.50;2.13;;;;;;;23.11;100.00;98226.19;15268951;19;20083;-54
2023/10/11 11:23:33;;;;;;;6.13;2.05;;;;;;;23.20;100.00;98228.31;15265209;19;20490;-52
2023/10/11 11:29:08;;;;;;;4.93;2.20;;;;;;;23.31;94.58;98204.59;15267708;19;20761;-55
2023/10/11 11:34:37;;;;;;;4.75;1.95;;;;;;;23.42;94.54;98216.56;15253195;19;20889;-53
2023/10/11 11:45:45;;;;;;;5.22;2.00;;;;;;;23.69;92.48;98222.22;15336022;19;20018;-50
2023/10/11 11:51:13;;;;;;;4.78;1.88;;;;;;;23.81;88.83;98218.53;15329081;19;20083;-54
2023/10/11 11:56:43;;;;;;;4.47;1.70;;;;;;;23.91;89.01;98220.59;15317009;19;20471;-49
2023/10/11 12:02:16;;;;;;;5.13;1.70;;;;;;;23.99;89.27;98214.69;15284871;19;20038;-48
2023/10/11 12:07:40;;;;;;;4.63;1.90;;;;;;;24.05;87.65;98201.84;15260153;19;20025;-52
2023/10/11 12:13:09;;;;;;;3.08;1.73;;;;;;;24.08;84.85;98201.31;15266524;19;20015;-54
2023/10/11 12:18:35;;;;;;;6.15;2.00;;;;;;;24.15;87.19;98174.44;15265058;19;20010;-53
2023/10/11 12:24:01;;;;;;;6.13;1.92;;;;;;;24.25;82.13;98176.47;15264765;19;20029;-49
2023/10/11 12:29:39;;;;;;;4.45;1.70;;;;;;;24.33;84.73;98175.19;15263889;19;20010;-50
2023/10/11 12:35:24;;;;;;;6.30;1.83;;;;;;;24.40;82.89;98170.34;15271012;19;20011;-54
2023/10/11 12:40:49;;;;;;;2.65;1.60;;;;;;;24.45;83.30;98178.63;15266401;19;20021;-50
2023/10/11 12:46:18;;;;;;;6.13;1.80;;;;;;;24.49;80.56;98171.53;15279703;19;20499;-55
2023/10/11 12:51:43;;;;;;;3.92;1.80;;;;;;;24.54;79.58;98177.09;15279648;19;20038;-49
2023/10/11 12:57:08;;;;;;;3.83;1.70;;;;;;;24.64;77.73;98170.88;15278927;19;20014;-52
2023/10/11 13:02:37;;;;;;;4.05;1.73;;;;;;;24.77;77.32;98175.13;15276898;19;20081;-53
2023/10/11 13:08:02;;;;;;;7.07;1.63;;;;;;;24.83;76.80;98168.59;15278286;19;20029;-54
2023/10/11 13:13:27;;;;;;;4.53;1.77;;;;;;;24.88;78.71;98176.91;15261792;19;20023;-56
2023/10/11 13:18:59;;;;;;;4.22;1.90;;;;;;;24.89;77.75;98164.78;15275787;19;20612;-53
2023/10/11 13:24:25;;;;;;;4.80;2.00;;;;;;;24.88;78.12;98160.38;15275973;19;20016;-55
2023/10/11 13:29:51;;;;;;;4.50;1.67;;;;;;;24.80;76.57;98152.59;15272350;19;20014;-53
2023/10/11 13:35:19;;;;;;;3.63;1.98;;;;;;;24.83;76.36;98137.44;15277327;19;20014;-56
2023/10/11 13:40:44;;;;;;;5.70;1.98;;;;;;;24.84;74.66;98156.50;15272025;19;20355;-54
2023/10/11 13:46:10;;;;;;;2.95;1.80;;;;;;;24.83;77.85;98135.53;15265488;19;20488;-53
2023/10/11 13:51:39;;;;;;;4.90;1.95;;;;;;;24.68;73.63;98147.22;15276320;19;20406;-51
2023/10/11 13:57:07;;;;;;;4.40;1.83;;;;;;;24.68;74.08;98146.38;15275491;19;20022;-54
2023/10/11 14:02:37;;;;;;;5.45;1.80;;;;;;;24.57;77.35;98138.03;15273503;19;20026;-56
2023/10/11 14:08:19;;;;;;;5.78;2.20;;;;;;;24.62;73.71;98129.81;15275652;19;20357;-56
2023/10/11 14:13:49;;;;;;;5.07;1.90;;;;;;;24.68;71.70;98143.63;15262670;19;20508;-52
2023/10/11 14:19:16;;;;;;;5.10;1.85;;;;;;;24.66;70.39;98140.28;15264381;19;20391;-54
2023/10/11 14:24:44;;;;;;;5.55;1.80;;;;;;;24.65;73.68;98128.47;15270085;19;20011;-57
2023/10/11 14:30:12;;;;;;;6.10;1.80;;;;;;;24.67;73.87;98134.53;15271308;19;20024;-56
2023/10/11 14:35:38;;;;;;;3.25;1.75;;;;;;;24.60;74.50;98120.97;15274546;19;20014;-52
2023/10/11 14:41:05;;;;;;;6.85;1.80;;;;;;;24.52;74.95;98123.38;15269867;19;20019;-52
2023/10/11 14:46:30;;;;;;;7.00;1.83;;;;;;;24.42;77.29;98118.56;15269428;19;20093;-56
2023/10/11 14:51:55;;;;;;;5.10;1.80;;;;;;;24.31;78.15;98120.41;15266153;19;20022;-53
2023/10/11 14:57:23;;;;;;;6.38;2.00;;;;;;;24.23;78.49;98112.59;15271148;19;20014;-54
2023/10/11 15:02:47;;;;;;;5.85;2.00;;;;;;;24.10;79.00;98106.44;15270457;19;20010;-53
2023/10/11 15:08:12;;;;;;;4.82;1.70;;;;;;;23.95;78.62;98108.94;15271179;19;20089;-55
2023/10/11 15:13:40;;;;;;;7.75;1.90;;;;;;;23.76;81.63;98105.69;15268249;19;20800;-53
2023/10/11 15:19:09;;;;;;;3.22;1.73;;;;;;;23.48;83.07;98107.50;15265752;19;20054;-53
2023/10/11 15:24:33;;;;;;;8.73;2.00;;;;;;;23.25;84.86;98101.13;15266500;19;20081;-55
2023/10/11 15:30:02;;;;;;;5.32;1.77;;;;;;;23.03;87.05;98090.06;15272023;19;20017;-54
2023/10/11 15:35:26;;;;;;;4.07;1.88;;;;;;;22.91;87.89;98096.47;15269602;19;20013;-54
2023/10/11 15:41:02;;;;;;;4.75;1.75;;;;;;;22.75;88.80;98091.81;15267655;19;20019;-55
2023/10/11 15:46:29;;;;;;;7.47;1.95;;;;;;;22.60;90.29;98097.88;15264981;19;20010;-53
2023/10/11 15:51:54;;;;;;;5.60;1.88;;;;;;;22.50;92.12;98097.69;15255596;19;20011;-53
2023/10/11 15:57:18;;;;;;;4.72;1.70;;;;;;;22.39;91.99;98089.25;15269986;19;20030;-52
2023/10/11 16:02:46;;;;;;;5.35;1.60;;;;;;;22.32;92.69;98089.41;15264798;19;20049;-55
2023/10/11 16:08:19;;;;;;;3.90;1.60;;;;;;;22.21;95.00;98092.19;15266899;19;20033;-54
2023/10/11 16:13:45;;;;;;;3.15;1.90;;;;;;;22.04;95.23;98098.47;15273408;19;20025;-54
2023/10/11 16:19:13;;;;;;;5.78;1.70;;;;;;;21.94;96.58;98095.50;15277254;19;20022;-54
2023/10/11 16:24:38;;;;;;;6.10;1.92;;;;;;;21.82;97.03;98107.34;15266966;19;20586;-52
2023/10/11 16:30:02;;;;;;;4.80;2.00;;;;;;;21.69;98.60;98104.88;15282706;19;20419;-53
2023/10/11 16:35:30;;;;;;;4.53;1.75;;;;;;;21.58;99.71;98100.22;15281913;19;20353;-53
2023/10/11 16:40:56;;;;;;;5.00;1.90;;;;;;;21.48;100.00;98107.13;15279526;19;20359;-52
2023/10/11 16:46:21;;;;;;;6.95;1.88;;;;;;;21.38;100.00;98106.91;15260189;19;20021;-54
2023/10/11 16:51:51;;;;;;;7.18;1.85;;;;;;;21.23;100.00;98102.72;15279717;19;20485;-54
2023/10/11 16:57:19;;;;;;;4.85;2.00;;;;;;;21.06;100.00;98108.09;15270304;19;20014;-52
2023/10/11 17:02:43;;;;;;;3.35;1.70;;;;;;;20.90;100.00;98112.38;15271132;19;20483;-54
2023/10/11 17:08:13;;;;;;;3.15;1.85;;;;;;;20.74;100.00;98107.56;15278896;19;20020;-54
2023/10/11 17:13:37;;;;;;;4.53;1.77;;;;;;;20.60;100.00;98106.94;15273279;19;20036;-46
2023/10/11 17:19:02;;;;;;;6.32;2.03;;;;;;;20.49;100.00;98111.31;15275527;19;20031;-49
2023/10/11 17:24:29;;;;;;;4.03;1.70;;;;;;;20.42;100.00;98116.88;15271875;19;20206;-47
2023/10/11 17:29:54;;;;;;;4.93;1.90;;;;;;;20.40;100.00;98123.66;15262414;19;20023;-50
2023/10/11 17:35:20;;;;;;;5.18;2.10;;;;;;;20.40;100.00;98118.19;15278029;19;20024;-46
2023/10/11 17:40:48;;;;;;;2.95;1.80;;;;;;;20.37;100.00;98118.66;15273512;19;20024;-46
2023/10/11 17:46:13;;;;;;;5.55;1.88;;;;;;;20.30;100.00;98119.56;15276813;19;20022;-46
2023/10/11 17:51:39;;;;;;;5.65;1.85;;;;;;;20.30;100.00;98118.75;15269728;19;20608;-47
2023/10/11 17:57:06;;;;;;;5.82;1.92;;;;;;;20.29;100.00;98117.06;15274852;19;20025;-48
2023/10/11 18:02:32;;;;;;;6.03;1.98;;;;;;;20.31;100.00;98117.69;15255914;19;20494;-47
2023/10/11 18:07:58;;;;;;;4.85;1.70;;;;;;;20.26;100.00;98115.66;15268024;19;20024;-49
2023/10/11 18:13:33;;;;;;;7.32;1.92;;;;;;;20.21;100.00;98115.50;15269085;19;20014;-49
2023/10/11 18:19:02;;;;;;;4.63;1.92;;;;;;;20.24;100.00;98117.78;15265377;19;20039;-48
2023/10/11 18:24:27;;;;;;;3.55;1.77;;;;;;;20.29;100.00;98111.59;15271234;19;20010;-47
2023/10/11 18:29:55;;;;;;;5.10;1.90;;;;;;;20.26;100.00;98101.97;15270937;19;20017;-47
2023/10/11 18:35:20;;;;;;;6.13;1.92;;;;;;;20.23;100.00;98105.16;15255027;19;20593;-50
2023/10/11 18:40:48;;;;;;;6.55;1.88;;;;;;;20.24;100.00;98098.63;15268162;19;20015;-46
2023/10/11 18:46:21;;;;;;;4.72;1.83;;;;;;;20.30;100.00;98100.41;15266003;19;20493;-48
2023/10/11 18:51:46;;;;;;;6.03;2.00;;;;;;;20.38;100.00;98101.16;15268153;19;20473;-46
2023/10/11 18:57:11;;;;;;;6.03;1.95;;;;;;;20.38;100.00;98099.25;15271170;19;20022;-51
2023/10/11 19:02:41;;;;;;;4.43;1.92;;;;;;;20.38;100.00;98098.44;15265682;19;20014;-48
2023/10/11 19:08:07;;;;;;;4.82;1.60;;;;;;;20.32;100.00;98100.19;15264270;19;20007;-47
2023/10/11 19:13:38;;;;;;;4.45;2.10;;;;;;;20.34;100.00;98089.88;15265846;19;20060;-48
2023/10/11 19:19:07;;;;;;;5.68;1.80;;;;;;;20.30;100.00;98089.47;15267474;19;20035;-48
2023/10/11 19:24:31;;;;;;;6.00;2.17;;;;;;;20.26;100.00;98085.56;15262733;19;20077;-47
2023/10/11 19:29:56;;;;;;;11.68;1.98;;;;;;;20.24;100.00;98093.16;15266009;19;20011;-47
2023/10/11 19:35:23;;;;;;;3.42;1.80;;;;;;;20.23;100.00;98094.22;15262571;19;20324;-47
2023/10/11 19:40:48;;;;;;;4.53;1.90;;;;;;;20.20;100.00;98096.59;15261996;19;20023;-49
2023/10/11 19:46:16;;;;;;;6.55;2.03;;;;;;;20.20;100.00;98085.66;15274692;19;20018;-50
2023/10/11 19:51:44;;;;;;;3.65;1.83;;;;;;;20.16;100.00;98088.03;15283391;19;20018;-51
2023/10/11 19:57:09;;;;;;;7.97;2.00;;;;;;;20.17;100.00;98078.72;15283177;19;20485;-45
2023/10/11 20:02:35;;;;;;;6.78;1.92;;;;;;;20.17;100.00;98073.25;15277204;19;20082;-46
2023/10/11 20:08:04;;;;;;;9.48;2.20;;;;;;;20.19;100.00;98073.84;15277923;19;20010;-46
2023/10/11 20:13:36;;;;;;;5.85;2.10;;;;;;;20.15;100.00;98073.50;15272605;19;20078;-47
2023/10/11 20:19:04;;;;;;;9.35;2.25;;;;;;;20.07;100.00;98071.09;15284933;19;20039;-46
2023/10/11 20:24:32;;;;;;;6.22;2.10;;;;;;;20.00;100.00;98076.66;15278401;19;20025;-47
2023/10/11 20:29:57;;;;;;;6.57;2.30;;;;;;;19.96;100.00;98069.97;15281104;19;20077;-47
2023/10/11 20:35:26;;;;;;;5.20;2.25;;;;;;;19.98;100.00;98069.75;15283011;19;20014;-47
2023/10/11 20:40:54;;;;;;;5.72;2.20;;;;;;;19.94;100.00;98061.16;15272822;19;20028;-46
2023/10/11 20:46:19;;;;;;;9.07;2.33;;;;;;;19.92;100.00;98067.94;15275116;19;20046;-49
2023/10/11 20:51:44;;;;;;;6.72;2.30;;;;;;;19.93;100.00;98072.31;15280261;19;20086;-46
2023/10/11 20:57:17;;;;;;;6.78;2.35;;;;;;;19.88;100.00;98056.63;15279062;19;20032;-46
2023/10/11 21:02:45;;;;;;;5.45;2.20;;;;;;;19.80;100.00;98065.13;15276392;19;20028;-49
2023/10/11 21:08:12;;;;;;;7.10;2.13;;;;;;;19.70;100.00;98054.72;15280095;19;20019;-48
2023/10/11 21:13:47;;;;;;;7.07;2.35;;;;;;;19.54;100.00;98050.72;15267377;19;20463;-46
2023/10/11 21:19:12;;;;;;;9.52;2.20;;;;;;;19.52;100.00;98052.84;15273501;19;20014;-46
2023/10/11 21:24:37;;;;;;;7.45;2.30;;;;;;;19.45;100.00;98057.56;15268572;19;20035;-47
2023/10/11 21:30:06;;;;;;;7.30;2.35;;;;;;;19.33;100.00;98055.59;15273455;19;20010;-48
2023/10/11 21:35:31;;;;;;;5.13;2.03;;;;;;;19.38;100.00;98049.44;15274562;19;20035;-47
2023/10/11 21:40:56;;;;;;;5.07;2.10;;;;;;;19.47;100.00;98044.47;15272644;19;20006;-46
2023/10/11 21:46:25;;;;;;;5.85;2.05;;;;;;;19.54;100.00;98032.41;15269190;19;20026;-49
2023/10/11 21:51:51;;;;;;;7.38;2.30;;;;;;;19.62;100.00;98027.72;15270729;19;20021;-47
2023/10/11 21:57:15;;;;;;;8.65;2.33;;;;;;;19.65;100.00;98029.97;15274010;19;20369;-48
2023/10/11 22:02:43;;;;;;;6.70;2.25;;;;;;;19.70;100.00;98020.00;15273237;19;20020;-49
2023/10/11 22:08:09;;;;;;;7.43;2.40;;;;;;;19.69;100.00;98012.06;15272304;19;20021;-48
2023/10/11 22:13:40;;;;;;;8.25;2.72;;;;;;;19.66;100.00;98013.34;15270242;19;20050;-46
2023/10/11 22:19:07;;;;;;;6.72;2.30;;;;;;;19.66;100.00;98010.63;15266028;19;20029;-44
2023/10/11 22:24:32;;;;;;;8.30;2.58;;;;;;;19.71;100.00;98002.56;15273131;19;20272;-46
2023/10/11 22:29:56;;;;;;;6.65;2.30;;;;;;;19.78;100.00;98005.19;15272145;19;20356;-43
2023/10/11 22:35:24;;;;;;;7.55;2.45;;;;;;;19.81;100.00;98010.22;15272401;19;20581;-46
2023/10/11 22:40:50;;;;;;;7.78;2.50;;;;;;;19.81;100.00;97998.47;15270502;19;20022;-45
2023/10/11 22:46:20;;;;;;;8.57;2.80;;;;;;;19.80;100.00;97999.53;15272115;19;20021;-46
2023/10/11 22:51:48;;;;;;;7.53;2.22;;;;;;;19.81;100.00;97999.28;15258690;19;20010;-48
2023/10/11 22:57:13;;;;;;;8.68;2.38;;;;;;;19.77;100.00;97999.97;15272328;19;20018;-51
2023/10/11 23:02:38;;;;;;;8.48;2.25;;;;;;;19.74;100.00;97986.75;15264644;19;20483;-48
2023/10/11 23:08:06;;;;;;;7.00;2.20;;;;;;;19.73;100.00;97993.28;15261034;19;20021;-48
2023/10/11 23:13:38;;;;;;;5.85;2.08;;;;;;;19.70;100.00;97992.69;15258227;19;20023;-49
2023/10/11 23:19:18;;;;;;;5.13;2.30;;;;;;;19.66;100.00;97972.38;15263841;19;20046;-48
2023/10/11 23:24:46;;;;;;;6.97;2.13;;;;;;;19.65;100.00;97987.09;15251120;19;20042;-47
2023/10/11 23:30:19;;;;;;;8.20;2.28;;;;;;;19.60;100.00;97992.41;15265608;19;20024;-44
2023/10/11 23:35:50;;;;;;;6.28;2.35;;;;;;;19.59;100.00;97981.72;15268943;19;20032;-47
2023/10/11 23:41:35;;;;;;;8.23;2.25;;;;;;;19.58;100.00;97986.34;15267078;19;20105;-50
2023/10/11 23:47:09;;;;;;;4.68;2.30;;;;;;;19.59;100.00;97992.66;15266591;19;20017;-48
2023/10/11 23:52:35;;;;;;;5.38;2.10;;;;;;;19.55;100.00;97987.63;15265736;19;20014;-45
2023/10/11 23:58:07;;;;;;;6.45;1.95;;;;;;;19.58;100.00;97977.31;15260289;19;20016;-43
